Карточка аэропорта UHMM

Внимание!
Информация на этой странице в стадии наполнения.
Если вы не увидели какой-то информации, или заметили неточность - пожалуйста сообщите нам!
Спасибо!
Команда RU-STAFF
Название аэропортаСокол
Название аэропорта (англ.)Sokol
Превышение575 ft. (175.3 m.)
Координаты59°54.648', 150°43.2'
Высота перехода10000 ft
Эшелон переходаQNH>=1013hPa: FL110; 1013hPa>QNH>=977hPa: FL120; QNH<977hPa: FL130
Коды ответчика6540-6577
Зона ОрВДМагадан РПИ (UHMM)
Данные METARUHMM 242100Z 00000MPS 9999 OVC008 10/09 Q1008 R10/70D NOSIG RMK MT OBSC QFE741 R28/26002MPS
Проноз погоды (TAF)UHMM 241957Z 2421/2603 11003MPS 9999 OVC005 TEMPO 2421/2424 0500 FG VV003 FM250000 23003G11MPS 9999 BKN025CB TEMPO 2500/2503 FEW006 SCT011 TEMPO 2509/2523 0500 FG VV004
NOTAMshow/hide NOTAM
AWOS   TABLE

Информация о ВПП


Диспетчерские позиции

Позывной Наименование органа УВД Частота
UHMM_APPМагадан-Подход119.3
UHMM_TWRМагадан-Вышка120.8



Спутниковое изображение